sensor_id;sensor_type;location;lat;lon;timestamp;P1;durP1;ratioP1;P2;durP2;ratioP2
61144;SDS011;47026;51.208;3.288;2022-11-21T00:00:37;5.32;;;1.10;;
61144;SDS011;47026;51.208;3.288;2022-11-21T00:05:29;4.15;;;0.95;;
61144;SDS011;47026;51.208;3.288;2022-11-21T00:07:55;3.78;;;0.95;;
61144;SDS011;47026;51.208;3.288;2022-11-21T00:12:52;9.05;;;1.20;;
61144;SDS011;47026;51.208;3.288;2022-11-21T00:15:21;5.00;;;1.00;;
61144;SDS011;47026;51.208;3.288;2022-11-21T00:17:48;2.92;;;0.70;;
61144;SDS011;47026;51.208;3.288;2022-11-21T00:20:15;4.50;;;0.70;;
61144;SDS011;47026;51.208;3.288;2022-11-21T00:22:41;1.95;;;1.05;;
61144;SDS011;47026;51.208;3.288;2022-11-21T00:25:07;3.10;;;1.00;;
61144;SDS011;47026;51.208;3.288;2022-11-21T00:29:58;2.28;;;0.88;;
61144;SDS011;47026;51.208;3.288;2022-11-21T00:32:24;2.47;;;0.93;;
61144;SDS011;47026;51.208;3.288;2022-11-21T00:34:49;5.75;;;1.00;;
61144;SDS011;47026;51.208;3.288;2022-11-21T00:37:15;3.35;;;1.40;;
61144;SDS011;47026;51.208;3.288;2022-11-21T00:42:06;4.18;;;1.20;;
61144;SDS011;47026;51.208;3.288;2022-11-21T00:44:32;3.62;;;1.20;;
61144;SDS011;47026;51.208;3.288;2022-11-21T00:46:57;4.95;;;1.37;;
61144;SDS011;47026;51.208;3.288;2022-11-21T00:49:23;5.22;;;1.40;;
61144;SDS011;47026;51.208;3.288;2022-11-21T00:51:49;3.03;;;1.25;;
61144;SDS011;47026;51.208;3.288;2022-11-21T00:54:14;6.82;;;1.23;;
61144;SDS011;47026;51.208;3.288;2022-11-21T00:56:40;2.72;;;1.20;;
61144;SDS011;47026;51.208;3.288;2022-11-21T00:59:06;4.32;;;1.50;;
61144;SDS011;47026;51.208;3.288;2022-11-21T01:01:31;6.12;;;1.65;;
61144;SDS011;47026;51.208;3.288;2022-11-21T01:03:57;3.72;;;1.12;;
61144;SDS011;47026;51.208;3.288;2022-11-21T01:06:23;4.90;;;1.33;;
61144;SDS011;47026;51.208;3.288;2022-11-21T01:11:15;2.70;;;1.48;;
61144;SDS011;47026;51.208;3.288;2022-11-21T01:13:42;7.12;;;1.37;;
61144;SDS011;47026;51.208;3.288;2022-11-21T01:16:12;3.97;;;1.60;;
61144;SDS011;47026;51.208;3.288;2022-11-21T01:18:43;1.05;;;0.93;;
61144;SDS011;47026;51.208;3.288;2022-11-21T01:23:37;7.12;;;1.25;;
61144;SDS011;47026;51.208;3.288;2022-11-21T01:26:03;3.87;;;1.27;;
61144;SDS011;47026;51.208;3.288;2022-11-21T01:28:31;2.95;;;1.15;;
61144;SDS011;47026;51.208;3.288;2022-11-21T01:31:04;4.00;;;1.17;;
61144;SDS011;47026;51.208;3.288;2022-11-21T01:33:31;5.03;;;1.10;;
61144;SDS011;47026;51.208;3.288;2022-11-21T01:36:04;3.45;;;1.10;;
61144;SDS011;47026;51.208;3.288;2022-11-21T01:38:31;3.97;;;1.23;;
61144;SDS011;47026;51.208;3.288;2022-11-21T01:40:57;4.90;;;1.40;;
61144;SDS011;47026;51.208;3.288;2022-11-21T01:48:18;6.10;;;1.20;;
61144;SDS011;47026;51.208;3.288;2022-11-21T01:50:46;5.20;;;1.40;;
61144;SDS011;47026;51.208;3.288;2022-11-21T01:55:37;2.03;;;1.20;;
61144;SDS011;47026;51.208;3.288;2022-11-21T02:00:31;3.92;;;1.30;;
61144;SDS011;47026;51.208;3.288;2022-11-21T02:03:05;5.32;;;1.20;;
61144;SDS011;47026;51.208;3.288;2022-11-21T02:05:34;6.62;;;1.20;;
61144;SDS011;47026;51.208;3.288;2022-11-21T02:08:02;5.25;;;1.10;;
61144;SDS011;47026;51.208;3.288;2022-11-21T02:10:37;6.28;;;1.40;;
61144;SDS011;47026;51.208;3.288;2022-11-21T02:13:08;3.92;;;1.20;;
61144;SDS011;47026;51.208;3.288;2022-11-21T02:18:00;4.28;;;1.20;;
61144;SDS011;47026;51.208;3.288;2022-11-21T02:20:27;2.50;;;1.40;;
61144;SDS011;47026;51.208;3.288;2022-11-21T02:23:14;5.75;;;1.20;;
61144;SDS011;47026;51.208;3.288;2022-11-21T02:25:48;2.60;;;1.10;;
61144;SDS011;47026;51.208;3.288;2022-11-21T02:28:15;6.30;;;1.70;;
61144;SDS011;47026;51.208;3.288;2022-11-21T02:30:44;2.47;;;1.00;;
61144;SDS011;47026;51.208;3.288;2022-11-21T02:33:11;3.65;;;1.25;;
61144;SDS011;47026;51.208;3.288;2022-11-21T02:35:37;4.57;;;1.00;;
61144;SDS011;47026;51.208;3.288;2022-11-21T02:38:05;3.08;;;0.90;;
61144;SDS011;47026;51.208;3.288;2022-11-21T02:40:41;3.17;;;1.10;;
61144;SDS011;47026;51.208;3.288;2022-11-21T02:43:35;4.70;;;1.30;;
61144;SDS011;47026;51.208;3.288;2022-11-21T02:46:08;6.87;;;1.37;;
61144;SDS011;47026;51.208;3.288;2022-11-21T02:48:35;2.35;;;1.10;;
61144;SDS011;47026;51.208;3.288;2022-11-21T02:51:01;4.15;;;1.20;;
61144;SDS011;47026;51.208;3.288;2022-11-21T02:53:27;8.38;;;1.35;;
61144;SDS011;47026;51.208;3.288;2022-11-21T02:58:18;4.45;;;1.45;;
61144;SDS011;47026;51.208;3.288;2022-11-21T03:00:44;6.05;;;1.37;;
61144;SDS011;47026;51.208;3.288;2022-11-21T03:03:10;2.97;;;1.10;;
61144;SDS011;47026;51.208;3.288;2022-11-21T03:05:36;3.62;;;0.98;;
61144;SDS011;47026;51.208;3.288;2022-11-21T03:08:03;3.97;;;1.10;;
61144;SDS011;47026;51.208;3.288;2022-11-21T03:10:29;7.85;;;1.30;;
61144;SDS011;47026;51.208;3.288;2022-11-21T03:12:55;3.70;;;1.37;;
61144;SDS011;47026;51.208;3.288;2022-11-21T03:15:24;3.10;;;1.25;;
61144;SDS011;47026;51.208;3.288;2022-11-21T03:17:52;6.22;;;1.15;;
61144;SDS011;47026;51.208;3.288;2022-11-21T03:20:18;6.65;;;1.10;;
61144;SDS011;47026;51.208;3.288;2022-11-21T03:22:43;4.50;;;1.40;;
61144;SDS011;47026;51.208;3.288;2022-11-21T03:25:09;3.05;;;1.20;;
61144;SDS011;47026;51.208;3.288;2022-11-21T03:27:34;1.87;;;0.90;;
61144;SDS011;47026;51.208;3.288;2022-11-21T03:30:00;4.12;;;1.20;;
61144;SDS011;47026;51.208;3.288;2022-11-21T03:32:26;3.33;;;1.30;;
61144;SDS011;47026;51.208;3.288;2022-11-21T03:34:51;8.25;;;2.10;;
61144;SDS011;47026;51.208;3.288;2022-11-21T03:37:17;9.05;;;1.50;;
61144;SDS011;47026;51.208;3.288;2022-11-21T03:39:43;5.45;;;1.90;;
61144;SDS011;47026;51.208;3.288;2022-11-21T03:42:08;6.18;;;1.80;;
61144;SDS011;47026;51.208;3.288;2022-11-21T03:44:34;6.43;;;2.28;;
61144;SDS011;47026;51.208;3.288;2022-11-21T03:47:00;8.63;;;2.62;;
61144;SDS011;47026;51.208;3.288;2022-11-21T03:49:25;5.60;;;1.75;;
61144;SDS011;47026;51.208;3.288;2022-11-21T03:51:51;3.67;;;1.80;;
61144;SDS011;47026;51.208;3.288;2022-11-21T03:54:17;4.87;;;1.92;;
61144;SDS011;47026;51.208;3.288;2022-11-21T03:56:42;3.47;;;2.28;;
61144;SDS011;47026;51.208;3.288;2022-11-21T03:59:08;3.87;;;1.60;;
61144;SDS011;47026;51.208;3.288;2022-11-21T04:01:33;4.18;;;1.52;;
61144;SDS011;47026;51.208;3.288;2022-11-21T04:03:59;5.50;;;1.95;;
61144;SDS011;47026;51.208;3.288;2022-11-21T04:06:25;3.22;;;1.80;;
61144;SDS011;47026;51.208;3.288;2022-11-21T04:08:51;6.78;;;2.10;;
61144;SDS011;47026;51.208;3.288;2022-11-21T04:11:17;8.02;;;1.98;;
61144;SDS011;47026;51.208;3.288;2022-11-21T04:13:45;4.22;;;1.98;;
61144;SDS011;47026;51.208;3.288;2022-11-21T04:16:11;4.07;;;1.83;;
61144;SDS011;47026;51.208;3.288;2022-11-21T04:18:36;7.50;;;2.33;;
61144;SDS011;47026;51.208;3.288;2022-11-21T04:23:28;7.03;;;1.70;;
61144;SDS011;47026;51.208;3.288;2022-11-21T04:25:54;4.32;;;2.33;;
61144;SDS011;47026;51.208;3.288;2022-11-21T04:28:20;4.87;;;2.87;;
61144;SDS011;47026;51.208;3.288;2022-11-21T04:33:12;3.90;;;1.90;;
61144;SDS011;47026;51.208;3.288;2022-11-21T04:35:39;3.60;;;1.90;;
61144;SDS011;47026;51.208;3.288;2022-11-21T04:38:05;3.75;;;1.70;;
61144;SDS011;47026;51.208;3.288;2022-11-21T04:40:30;5.10;;;2.20;;
61144;SDS011;47026;51.208;3.288;2022-11-21T04:42:56;7.35;;;2.37;;
61144;SDS011;47026;51.208;3.288;2022-11-21T04:45:22;9.48;;;2.00;;
61144;SDS011;47026;51.208;3.288;2022-11-21T04:47:47;5.50;;;2.15;;
61144;SDS011;47026;51.208;3.288;2022-11-21T04:50:15;7.37;;;2.08;;
61144;SDS011;47026;51.208;3.288;2022-11-21T04:52:41;6.18;;;2.60;;
61144;SDS011;47026;51.208;3.288;2022-11-21T04:55:07;6.75;;;2.10;;
61144;SDS011;47026;51.208;3.288;2022-11-21T04:57:34;7.50;;;2.20;;
61144;SDS011;47026;51.208;3.288;2022-11-21T04:59:59;14.82;;;2.58;;
61144;SDS011;47026;51.208;3.288;2022-11-21T05:02:25;8.48;;;2.40;;
61144;SDS011;47026;51.208;3.288;2022-11-21T05:04:51;4.70;;;2.08;;
61144;SDS011;47026;51.208;3.288;2022-11-21T05:07:16;69.80;;;8.43;;
61144;SDS011;47026;51.208;3.288;2022-11-21T05:09:42;6.18;;;2.25;;
61144;SDS011;47026;51.208;3.288;2022-11-21T05:12:08;5.30;;;2.42;;
61144;SDS011;47026;51.208;3.288;2022-11-21T05:14:53;5.40;;;2.83;;
61144;SDS011;47026;51.208;3.288;2022-11-21T05:17:19;8.70;;;2.50;;
61144;SDS011;47026;51.208;3.288;2022-11-21T05:19:45;6.28;;;2.25;;
61144;SDS011;47026;51.208;3.288;2022-11-21T05:22:11;6.25;;;2.40;;
61144;SDS011;47026;51.208;3.288;2022-11-21T05:24:36;5.68;;;2.30;;
61144;SDS011;47026;51.208;3.288;2022-11-21T05:29:28;8.40;;;2.40;;
61144;SDS011;47026;51.208;3.288;2022-11-21T05:31:54;4.45;;;2.25;;
61144;SDS011;47026;51.208;3.288;2022-11-21T05:34:20;7.00;;;2.60;;
61144;SDS011;47026;51.208;3.288;2022-11-21T05:36:45;4.28;;;2.28;;
61144;SDS011;47026;51.208;3.288;2022-11-21T05:39:11;6.75;;;2.10;;
61144;SDS011;47026;51.208;3.288;2022-11-21T05:41:37;5.68;;;2.90;;
61144;SDS011;47026;51.208;3.288;2022-11-21T05:44:02;5.80;;;2.20;;
61144;SDS011;47026;51.208;3.288;2022-11-21T05:46:28;12.37;;;2.87;;
61144;SDS011;47026;51.208;3.288;2022-11-21T05:48:54;4.85;;;2.40;;
61144;SDS011;47026;51.208;3.288;2022-11-21T05:51:20;6.75;;;2.60;;
61144;SDS011;47026;51.208;3.288;2022-11-21T05:53:46;7.30;;;3.05;;
61144;SDS011;47026;51.208;3.288;2022-11-21T05:56:16;7.07;;;3.42;;
61144;SDS011;47026;51.208;3.288;2022-11-21T05:58:43;16.95;;;3.28;;
61144;SDS011;47026;51.208;3.288;2022-11-21T06:01:10;7.32;;;2.37;;
61144;SDS011;47026;51.208;3.288;2022-11-21T06:03:39;6.68;;;2.50;;
61144;SDS011;47026;51.208;3.288;2022-11-21T06:06:09;7.18;;;2.83;;
61144;SDS011;47026;51.208;3.288;2022-11-21T06:08:40;7.00;;;2.45;;
61144;SDS011;47026;51.208;3.288;2022-11-21T06:11:08;8.82;;;3.12;;
61144;SDS011;47026;51.208;3.288;2022-11-21T06:13:36;7.75;;;3.00;;
61144;SDS011;47026;51.208;3.288;2022-11-21T06:18:30;8.20;;;4.50;;
61144;SDS011;47026;51.208;3.288;2022-11-21T06:21:01;10.05;;;3.50;;
61144;SDS011;47026;51.208;3.288;2022-11-21T06:23:36;8.18;;;3.60;;
61144;SDS011;47026;51.208;3.288;2022-11-21T06:26:03;8.98;;;4.03;;
61144;SDS011;47026;51.208;3.288;2022-11-21T06:28:31;9.05;;;3.95;;
61144;SDS011;47026;51.208;3.288;2022-11-21T06:31:02;6.35;;;3.17;;
61144;SDS011;47026;51.208;3.288;2022-11-21T06:33:29;10.18;;;3.50;;
61144;SDS011;47026;51.208;3.288;2022-11-21T06:35:55;11.38;;;3.50;;
61144;SDS011;47026;51.208;3.288;2022-11-21T06:38:21;5.12;;;2.87;;
61144;SDS011;47026;51.208;3.288;2022-11-21T06:40:46;7.80;;;3.55;;
61144;SDS011;47026;51.208;3.288;2022-11-21T06:43:12;7.95;;;3.08;;
61144;SDS011;47026;51.208;3.288;2022-11-21T06:45:37;9.02;;;3.37;;
61144;SDS011;47026;51.208;3.288;2022-11-21T06:48:03;7.55;;;3.78;;
61144;SDS011;47026;51.208;3.288;2022-11-21T06:50:29;10.40;;;3.40;;
61144;SDS011;47026;51.208;3.288;2022-11-21T06:52:58;12.85;;;4.20;;
61144;SDS011;47026;51.208;3.288;2022-11-21T06:55:25;11.75;;;4.00;;
61144;SDS011;47026;51.208;3.288;2022-11-21T06:57:52;8.90;;;4.35;;
61144;SDS011;47026;51.208;3.288;2022-11-21T07:00:27;8.48;;;4.22;;
61144;SDS011;47026;51.208;3.288;2022-11-21T07:02:53;8.32;;;4.72;;
61144;SDS011;47026;51.208;3.288;2022-11-21T07:05:19;9.48;;;4.20;;
61144;SDS011;47026;51.208;3.288;2022-11-21T07:07:45;10.13;;;4.80;;
61144;SDS011;47026;51.208;3.288;2022-11-21T07:10:11;12.13;;;5.82;;
61144;SDS011;47026;51.208;3.288;2022-11-21T07:12:37;10.80;;;5.60;;
61144;SDS011;47026;51.208;3.288;2022-11-21T07:15:21;10.68;;;4.95;;
61144;SDS011;47026;51.208;3.288;2022-11-21T07:17:47;15.90;;;6.30;;
61144;SDS011;47026;51.208;3.288;2022-11-21T07:20:13;14.05;;;5.93;;
61144;SDS011;47026;51.208;3.288;2022-11-21T07:25:04;9.93;;;5.35;;
61144;SDS011;47026;51.208;3.288;2022-11-21T07:29:56;11.77;;;6.32;;
61144;SDS011;47026;51.208;3.288;2022-11-21T07:32:25;11.32;;;6.25;;
61144;SDS011;47026;51.208;3.288;2022-11-21T07:34:51;14.80;;;7.18;;
61144;SDS011;47026;51.208;3.288;2022-11-21T07:37:17;11.52;;;6.50;;
61144;SDS011;47026;51.208;3.288;2022-11-21T07:39:43;13.13;;;6.37;;
61144;SDS011;47026;51.208;3.288;2022-11-21T07:42:08;8.57;;;5.37;;
61144;SDS011;47026;51.208;3.288;2022-11-21T07:44:34;9.32;;;4.80;;
61144;SDS011;47026;51.208;3.288;2022-11-21T07:47:00;9.88;;;4.80;;
61144;SDS011;47026;51.208;3.288;2022-11-21T07:49:25;11.25;;;5.62;;
61144;SDS011;47026;51.208;3.288;2022-11-21T07:51:51;11.50;;;5.80;;
61144;SDS011;47026;51.208;3.288;2022-11-21T07:54:16;8.45;;;5.10;;
61144;SDS011;47026;51.208;3.288;2022-11-21T07:56:42;10.18;;;5.15;;
61144;SDS011;47026;51.208;3.288;2022-11-21T07:59:08;9.95;;;5.03;;
61144;SDS011;47026;51.208;3.288;2022-11-21T08:01:33;7.93;;;4.30;;
61144;SDS011;47026;51.208;3.288;2022-11-21T08:03:59;8.32;;;4.60;;
61144;SDS011;47026;51.208;3.288;2022-11-21T08:06:25;9.68;;;4.57;;
61144;SDS011;47026;51.208;3.288;2022-11-21T08:08:53;11.05;;;4.32;;
61144;SDS011;47026;51.208;3.288;2022-11-21T08:11:19;7.78;;;4.15;;
61144;SDS011;47026;51.208;3.288;2022-11-21T08:13:45;9.18;;;4.10;;
61144;SDS011;47026;51.208;3.288;2022-11-21T08:16:10;8.90;;;3.85;;
61144;SDS011;47026;51.208;3.288;2022-11-21T08:18:36;8.70;;;4.12;;
61144;SDS011;47026;51.208;3.288;2022-11-21T08:21:02;7.53;;;3.55;;
61144;SDS011;47026;51.208;3.288;2022-11-21T08:23:29;9.85;;;4.10;;
61144;SDS011;47026;51.208;3.288;2022-11-21T08:25:55;13.52;;;3.80;;
61144;SDS011;47026;51.208;3.288;2022-11-21T08:28:21;11.30;;;3.67;;
61144;SDS011;47026;51.208;3.288;2022-11-21T08:30:47;6.15;;;2.95;;
61144;SDS011;47026;51.208;3.288;2022-11-21T08:35:38;8.35;;;3.55;;
61144;SDS011;47026;51.208;3.288;2022-11-21T08:38:04;10.02;;;3.87;;
61144;SDS011;47026;51.208;3.288;2022-11-21T08:43:06;10.32;;;3.05;;
61144;SDS011;47026;51.208;3.288;2022-11-21T08:45:33;6.62;;;2.87;;
61144;SDS011;47026;51.208;3.288;2022-11-21T08:48:00;5.62;;;3.62;;
61144;SDS011;47026;51.208;3.288;2022-11-21T08:50:26;8.60;;;3.03;;
61144;SDS011;47026;51.208;3.288;2022-11-21T08:52:57;4.07;;;2.92;;
61144;SDS011;47026;51.208;3.288;2022-11-21T08:55:24;8.82;;;3.70;;
61144;SDS011;47026;51.208;3.288;2022-11-21T08:57:50;9.27;;;3.05;;
61144;SDS011;47026;51.208;3.288;2022-11-21T09:00:16;9.40;;;3.10;;
61144;SDS011;47026;51.208;3.288;2022-11-21T09:02:41;7.10;;;3.15;;
61144;SDS011;47026;51.208;3.288;2022-11-21T09:05:07;7.15;;;2.92;;
61144;SDS011;47026;51.208;3.288;2022-11-21T09:07:33;10.88;;;3.37;;
61144;SDS011;47026;51.208;3.288;2022-11-21T09:12:25;6.90;;;3.30;;
61144;SDS011;47026;51.208;3.288;2022-11-21T09:14:51;5.82;;;3.15;;
61144;SDS011;47026;51.208;3.288;2022-11-21T09:17:35;6.43;;;2.33;;
61144;SDS011;47026;51.208;3.288;2022-11-21T09:20:20;8.57;;;2.83;;
61144;SDS011;47026;51.208;3.288;2022-11-21T09:22:46;6.70;;;3.00;;
61144;SDS011;47026;51.208;3.288;2022-11-21T09:25:11;12.35;;;2.90;;
61144;SDS011;47026;51.208;3.288;2022-11-21T09:27:37;3.87;;;2.53;;
61144;SDS011;47026;51.208;3.288;2022-11-21T09:30:03;5.20;;;2.90;;
61144;SDS011;47026;51.208;3.288;2022-11-21T09:32:29;5.72;;;2.55;;
61144;SDS011;47026;51.208;3.288;2022-11-21T09:34:54;8.52;;;3.22;;
61144;SDS011;47026;51.208;3.288;2022-11-21T09:39:46;7.68;;;3.15;;
61144;SDS011;47026;51.208;3.288;2022-11-21T09:44:57;9.75;;;3.50;;
61144;SDS011;47026;51.208;3.288;2022-11-21T09:47:37;8.80;;;3.37;;
61144;SDS011;47026;51.208;3.288;2022-11-21T09:57:42;8.32;;;3.90;;
61144;SDS011;47026;51.208;3.288;2022-11-21T10:00:13;9.52;;;3.80;;
61144;SDS011;47026;51.208;3.288;2022-11-21T10:02:43;11.55;;;3.65;;
61144;SDS011;47026;51.208;3.288;2022-11-21T10:05:12;9.60;;;3.42;;
61144;SDS011;47026;51.208;3.288;2022-11-21T10:07:39;13.45;;;4.12;;
61144;SDS011;47026;51.208;3.288;2022-11-21T10:13:31;14.68;;;4.57;;
61144;SDS011;47026;51.208;3.288;2022-11-21T10:27:13;12.57;;;5.03;;
61144;SDS011;47026;51.208;3.288;2022-11-21T10:29:42;14.23;;;4.28;;
61144;SDS011;47026;51.208;3.288;2022-11-21T10:32:23;13.70;;;4.68;;
61144;SDS011;47026;51.208;3.288;2022-11-21T10:34:57;15.50;;;4.90;;
61144;SDS011;47026;51.208;3.288;2022-11-21T10:37:29;21.87;;;6.25;;
61144;SDS011;47026;51.208;3.288;2022-11-21T10:39:56;19.73;;;5.85;;
61144;SDS011;47026;51.208;3.288;2022-11-21T10:42:33;14.25;;;5.68;;
61144;SDS011;47026;51.208;3.288;2022-11-21T10:45:10;15.95;;;5.95;;
61144;SDS011;47026;51.208;3.288;2022-11-21T10:47:41;14.48;;;6.30;;
61144;SDS011;47026;51.208;3.288;2022-11-21T10:52:34;18.25;;;7.50;;
61144;SDS011;47026;51.208;3.288;2022-11-21T10:55:08;22.35;;;8.05;;
61144;SDS011;47026;51.208;3.288;2022-11-21T10:57:37;22.33;;;8.90;;
61144;SDS011;47026;51.208;3.288;2022-11-21T11:02:42;20.10;;;9.88;;
61144;SDS011;47026;51.208;3.288;2022-11-21T11:05:31;19.10;;;10.65;;
61144;SDS011;47026;51.208;3.288;2022-11-21T11:10:43;24.85;;;12.25;;
61144;SDS011;47026;51.208;3.288;2022-11-21T11:13:18;28.75;;;13.05;;
61144;SDS011;47026;51.208;3.288;2022-11-21T11:16:02;29.25;;;13.00;;
61144;SDS011;47026;51.208;3.288;2022-11-21T11:18:34;24.73;;;12.07;;
61144;SDS011;47026;51.208;3.288;2022-11-21T11:21:47;28.12;;;14.35;;
61144;SDS011;47026;51.208;3.288;2022-11-21T11:29:17;30.35;;;13.57;;
61144;SDS011;47026;51.208;3.288;2022-11-21T11:31:52;29.77;;;12.98;;
61144;SDS011;47026;51.208;3.288;2022-11-21T11:37:29;25.80;;;12.20;;
61144;SDS011;47026;51.208;3.288;2022-11-21T11:40:23;25.37;;;12.30;;
61144;SDS011;47026;51.208;3.288;2022-11-21T11:46:08;29.48;;;13.07;;
61144;SDS011;47026;51.208;3.288;2022-11-21T11:49:02;29.17;;;14.27;;
61144;SDS011;47026;51.208;3.288;2022-11-21T11:51:37;32.90;;;16.75;;
61144;SDS011;47026;51.208;3.288;2022-11-21T11:54:07;31.00;;;15.02;;
61144;SDS011;47026;51.208;3.288;2022-11-21T11:56:41;38.65;;;16.70;;
61144;SDS011;47026;51.208;3.288;2022-11-21T12:01:52;37.25;;;17.42;;
61144;SDS011;47026;51.208;3.288;2022-11-21T12:04:21;36.30;;;16.77;;
61144;SDS011;47026;51.208;3.288;2022-11-21T12:12:22;47.83;;;18.75;;
61144;SDS011;47026;51.208;3.288;2022-11-21T12:23:24;37.05;;;16.45;;
61144;SDS011;47026;51.208;3.288;2022-11-21T12:28:44;33.70;;;16.77;;
61144;SDS011;47026;51.208;3.288;2022-11-21T12:33:57;28.60;;;12.88;;
61144;SDS011;47026;51.208;3.288;2022-11-21T12:36:43;34.15;;;15.07;;
61144;SDS011;47026;51.208;3.288;2022-11-21T12:50:38;34.08;;;14.77;;
61144;SDS011;47026;51.208;3.288;2022-11-21T12:56:31;28.98;;;12.00;;
61144;SDS011;47026;51.208;3.288;2022-11-21T12:59:04;27.35;;;13.73;;
61144;SDS011;47026;51.208;3.288;2022-11-21T13:04:40;28.50;;;12.60;;
61144;SDS011;47026;51.208;3.288;2022-11-21T13:07:08;33.80;;;13.38;;
61144;SDS011;47026;51.208;3.288;2022-11-21T13:09:39;25.00;;;11.70;;
61144;SDS011;47026;51.208;3.288;2022-11-21T13:17:54;28.25;;;11.98;;
61144;SDS011;47026;51.208;3.288;2022-11-21T13:20:37;25.70;;;11.40;;
61144;SDS011;47026;51.208;3.288;2022-11-21T13:23:33;25.35;;;10.45;;
61144;SDS011;47026;51.208;3.288;2022-11-21T13:26:01;22.67;;;9.98;;
61144;SDS011;47026;51.208;3.288;2022-11-21T13:28:46;21.35;;;7.78;;
61144;SDS011;47026;51.208;3.288;2022-11-21T13:33:51;23.12;;;9.10;;
61144;SDS011;47026;51.208;3.288;2022-11-21T14:08:22;19.67;;;8.52;;
61144;SDS011;47026;51.208;3.288;2022-11-21T14:10:53;20.77;;;8.55;;
61144;SDS011;47026;51.208;3.288;2022-11-21T14:13:27;17.30;;;7.32;;
61144;SDS011;47026;51.208;3.288;2022-11-21T14:18:35;20.23;;;6.57;;
61144;SDS011;47026;51.208;3.288;2022-11-21T14:21:15;14.70;;;6.15;;
61144;SDS011;47026;51.208;3.288;2022-11-21T14:24:03;15.25;;;5.25;;
61144;SDS011;47026;51.208;3.288;2022-11-21T14:26:39;10.05;;;5.00;;
61144;SDS011;47026;51.208;3.288;2022-11-21T14:29:27;13.75;;;4.95;;
61144;SDS011;47026;51.208;3.288;2022-11-21T14:32:02;15.45;;;5.43;;
61144;SDS011;47026;51.208;3.288;2022-11-21T14:34:29;12.52;;;3.97;;
61144;SDS011;47026;51.208;3.288;2022-11-21T14:36:57;15.15;;;4.72;;
61144;SDS011;47026;51.208;3.288;2022-11-21T14:39:28;18.85;;;5.28;;
61144;SDS011;47026;51.208;3.288;2022-11-21T14:41:56;14.63;;;4.70;;
61144;SDS011;47026;51.208;3.288;2022-11-21T14:44:26;10.63;;;4.55;;
61144;SDS011;47026;51.208;3.288;2022-11-21T14:52:25;9.82;;;3.95;;
61144;SDS011;47026;51.208;3.288;2022-11-21T14:54:56;11.43;;;4.15;;
61144;SDS011;47026;51.208;3.288;2022-11-21T14:59:54;13.60;;;4.03;;
61144;SDS011;47026;51.208;3.288;2022-11-21T15:02:22;12.60;;;5.72;;
61144;SDS011;47026;51.208;3.288;2022-11-21T15:04:51;14.70;;;4.32;;
61144;SDS011;47026;51.208;3.288;2022-11-21T15:07:22;11.88;;;4.10;;
61144;SDS011;47026;51.208;3.288;2022-11-21T15:09:50;11.57;;;3.78;;
61144;SDS011;47026;51.208;3.288;2022-11-21T15:12:22;10.90;;;4.43;;
61144;SDS011;47026;51.208;3.288;2022-11-21T15:15:04;11.90;;;3.53;;
61144;SDS011;47026;51.208;3.288;2022-11-21T15:17:41;9.13;;;4.57;;
61144;SDS011;47026;51.208;3.288;2022-11-21T15:22:36;12.68;;;4.55;;
61144;SDS011;47026;51.208;3.288;2022-11-21T15:25:07;20.95;;;6.70;;
61144;SDS011;47026;51.208;3.288;2022-11-21T15:27:49;16.75;;;5.70;;
61144;SDS011;47026;51.208;3.288;2022-11-21T15:38:11;19.50;;;5.80;;
61144;SDS011;47026;51.208;3.288;2022-11-21T15:40:53;20.45;;;5.10;;
61144;SDS011;47026;51.208;3.288;2022-11-21T15:48:53;9.15;;;4.28;;
61144;SDS011;47026;51.208;3.288;2022-11-21T15:51:21;15.13;;;5.95;;
61144;SDS011;47026;51.208;3.288;2022-11-21T15:53:49;16.65;;;7.00;;
61144;SDS011;47026;51.208;3.288;2022-11-21T15:56:18;17.58;;;5.78;;
61144;SDS011;47026;51.208;3.288;2022-11-21T15:58:46;22.98;;;7.50;;
61144;SDS011;47026;51.208;3.288;2022-11-21T16:01:13;14.85;;;6.72;;
61144;SDS011;47026;51.208;3.288;2022-11-21T16:03:53;12.80;;;6.43;;
61144;SDS011;47026;51.208;3.288;2022-11-21T16:06:21;19.25;;;6.55;;
61144;SDS011;47026;51.208;3.288;2022-11-21T16:08:47;12.98;;;6.10;;
61144;SDS011;47026;51.208;3.288;2022-11-21T16:11:17;20.15;;;6.65;;
61144;SDS011;47026;51.208;3.288;2022-11-21T16:13:56;21.98;;;6.72;;
61144;SDS011;47026;51.208;3.288;2022-11-21T16:16:24;16.80;;;7.43;;
61144;SDS011;47026;51.208;3.288;2022-11-21T16:18:52;16.75;;;8.05;;
61144;SDS011;47026;51.208;3.288;2022-11-21T16:21:17;20.92;;;8.05;;
61144;SDS011;47026;51.208;3.288;2022-11-21T16:23:43;19.02;;;7.70;;
61144;SDS011;47026;51.208;3.288;2022-11-21T16:26:09;17.65;;;7.37;;
61144;SDS011;47026;51.208;3.288;2022-11-21T16:28:35;16.52;;;6.70;;
61144;SDS011;47026;51.208;3.288;2022-11-21T16:31:02;16.25;;;6.18;;
61144;SDS011;47026;51.208;3.288;2022-11-21T16:33:29;11.32;;;5.72;;
61144;SDS011;47026;51.208;3.288;2022-11-21T16:35:55;14.25;;;5.70;;
61144;SDS011;47026;51.208;3.288;2022-11-21T16:38:25;20.17;;;6.00;;
61144;SDS011;47026;51.208;3.288;2022-11-21T16:41:01;17.23;;;5.55;;
61144;SDS011;47026;51.208;3.288;2022-11-21T16:43:31;14.13;;;5.50;;
61144;SDS011;47026;51.208;3.288;2022-11-21T16:46:07;12.35;;;4.93;;
61144;SDS011;47026;51.208;3.288;2022-11-21T16:51:09;8.88;;;4.68;;
61144;SDS011;47026;51.208;3.288;2022-11-21T16:53:42;15.95;;;5.62;;
61144;SDS011;47026;51.208;3.288;2022-11-21T16:56:09;21.60;;;10.13;;
61144;SDS011;47026;51.208;3.288;2022-11-21T16:58:36;11.32;;;4.57;;
61144;SDS011;47026;51.208;3.288;2022-11-21T17:01:09;13.18;;;4.30;;
61144;SDS011;47026;51.208;3.288;2022-11-21T17:03:37;15.23;;;6.03;;
61144;SDS011;47026;51.208;3.288;2022-11-21T17:06:03;18.73;;;7.65;;
61144;SDS011;47026;51.208;3.288;2022-11-21T17:08:29;13.23;;;6.30;;
61144;SDS011;47026;51.208;3.288;2022-11-21T17:10:55;9.18;;;3.40;;
61144;SDS011;47026;51.208;3.288;2022-11-21T17:13:21;15.13;;;4.50;;
61144;SDS011;47026;51.208;3.288;2022-11-21T17:15:46;11.77;;;4.03;;
61144;SDS011;47026;51.208;3.288;2022-11-21T17:18:15;14.95;;;4.97;;
61144;SDS011;47026;51.208;3.288;2022-11-21T17:20:41;11.57;;;5.12;;
61144;SDS011;47026;51.208;3.288;2022-11-21T17:23:06;14.23;;;4.30;;
61144;SDS011;47026;51.208;3.288;2022-11-21T17:25:32;13.10;;;5.20;;
61144;SDS011;47026;51.208;3.288;2022-11-21T17:27:58;17.08;;;5.25;;
61144;SDS011;47026;51.208;3.288;2022-11-21T17:30:24;14.70;;;5.07;;
61144;SDS011;47026;51.208;3.288;2022-11-21T17:32:50;18.08;;;6.03;;
61144;SDS011;47026;51.208;3.288;2022-11-21T17:35:15;11.55;;;3.92;;
61144;SDS011;47026;51.208;3.288;2022-11-21T17:37:44;14.98;;;5.03;;
61144;SDS011;47026;51.208;3.288;2022-11-21T17:40:10;13.02;;;5.15;;
61144;SDS011;47026;51.208;3.288;2022-11-21T17:42:36;9.95;;;4.28;;
61144;SDS011;47026;51.208;3.288;2022-11-21T17:45:05;13.15;;;4.47;;
61144;SDS011;47026;51.208;3.288;2022-11-21T17:47:32;13.65;;;5.10;;
61144;SDS011;47026;51.208;3.288;2022-11-21T17:49:58;13.02;;;4.20;;
61144;SDS011;47026;51.208;3.288;2022-11-21T17:52:23;11.30;;;4.57;;
61144;SDS011;47026;51.208;3.288;2022-11-21T17:54:49;7.30;;;3.53;;
61144;SDS011;47026;51.208;3.288;2022-11-21T17:57:14;9.57;;;4.00;;
61144;SDS011;47026;51.208;3.288;2022-11-21T17:59:40;13.15;;;3.72;;
61144;SDS011;47026;51.208;3.288;2022-11-21T18:02:07;10.50;;;4.25;;
61144;SDS011;47026;51.208;3.288;2022-11-21T18:04:33;12.40;;;4.03;;
61144;SDS011;47026;51.208;3.288;2022-11-21T18:07:02;8.15;;;4.03;;
61144;SDS011;47026;51.208;3.288;2022-11-21T18:09:30;7.70;;;3.95;;
61144;SDS011;47026;51.208;3.288;2022-11-21T18:11:56;9.77;;;3.65;;
61144;SDS011;47026;51.208;3.288;2022-11-21T18:14:22;8.68;;;3.17;;
61144;SDS011;47026;51.208;3.288;2022-11-21T18:16:47;8.50;;;2.85;;